»·PEaware :: UAL384 KSAN-KSFO

UAL384 :: KSAN-KSFO

FLIGHT INFORMATION

Flight Status: Arrived
Operator:
United Airlines
More flights by this operator :: More flights under this callsign
Pilot: Alfredo R. (12181)
Aircraft: BOEING 737-300
(B733)
More flights by this aircraft type
Origin: KSAN San Diego Intl-Lindbergh
United States
Destination: KSFO San Francisco Intl
United States
More flights between these airports :: More routes between these airports
Route: +PADRZ2 IKAYE RIZIN SPLNT STOKD SERFR SERFR3
File this flight plan on PilotEdge
Remarks:
Altitude:
(Current/Filed)
26,000ft
Speed:
(Current/Filed)
425kts
Departed: 22-Jan-19 08:04 PM
Arrived: 22-Jan-19 09:16 PM
Distance/Time
Traveled:
388nm/1:12
Distance/Time
To Go:
Arrived

Flight Plot

Page will automatically refresh every two minutes.

Flight plan parsing failed; only flown route is shown


Map Options




Map Legend


Flown Route
Filed Route
Departure Airport
Arrival Airport
Navaid (VOR, NDB)
Fix

Horizontal Profiles

Position Reports

Time Latitude Longitude Heading Altitude Ground
Speed
22-Jan-19 19:42 32.734503 -117.203436 230 17ft 0kts
22-Jan-19 19:43 32.734503 -117.203436 230 17ft 0kts
22-Jan-19 19:44 32.734503 -117.203436 230 17ft 0kts
22-Jan-19 19:45 32.734503 -117.203436 230 17ft 0kts
22-Jan-19 19:46 32.734503 -117.203436 230 17ft 0kts
22-Jan-19 19:47 32.734610 -117.203282 230 17ft 2kts
22-Jan-19 19:48 32.735080 -117.203056 136 17ft 2kts
22-Jan-19 19:49 32.735148 -117.203607 85 17ft 2kts
22-Jan-19 19:50 32.734942 -117.202847 104 17ft 0kts
22-Jan-19 19:51 32.735096 -117.202383 33 17ft 0kts
22-Jan-19 19:52 32.735096 -117.202383 33 17ft 0kts
22-Jan-19 19:53 32.735097 -117.202382 33 17ft 0kts
22-Jan-19 19:54 32.735253 -117.200920 105 17ft 10kts
22-Jan-19 19:55 32.734354 -117.197215 106 17ft 14kts
22-Jan-19 19:56 32.733192 -117.192413 106 20ft 17kts
22-Jan-19 19:57 32.731760 -117.186539 105 17ft 20kts
22-Jan-19 19:58 32.730226 -117.180212 106 17ft 19kts
22-Jan-19 20:00 32.729533 -117.176635 73 22ft 0kts
22-Jan-19 20:00 32.729533 -117.176635 73 22ft 0kts
22-Jan-19 20:01 32.729713 -117.176018 61 23ft 5kts
22-Jan-19 20:03 32.731467 -117.181055 286 18ft 39kts
22-Jan-19 20:03 32.740516 -117.216450 291 599ft 181kts
22-Jan-19 20:04 32.772037 -117.263758 317 2858ft 182kts
22-Jan-19 20:05 32.804662 -117.322766 310 3812ft 251kts
22-Jan-19 20:06 32.849023 -117.394392 313 5622ft 264kts
22-Jan-19 20:07 32.893908 -117.464454 314 7515ft 264kts
22-Jan-19 20:08 32.939274 -117.535075 314 9099ft 269kts
22-Jan-19 20:09 32.985619 -117.607365 314 10150ft 287kts
22-Jan-19 20:10 33.038088 -117.689419 312 10321ft 322kts
22-Jan-19 20:11 33.099611 -117.766177 324 11155ft 316kts
22-Jan-19 20:12 33.168207 -117.835683 324 11885ft 319kts
22-Jan-19 20:13 33.234283 -117.909885 319 12551ft 323kts
22-Jan-19 20:14 33.298983 -117.987054 319 13127ft 325kts
22-Jan-19 20:15 33.363957 -118.064642 319 13644ft 326kts
22-Jan-19 20:16 33.429333 -118.142889 319 14065ft 328kts
22-Jan-19 20:17 33.495078 -118.221764 319 14448ft 330kts
22-Jan-19 20:19 33.572485 -118.314863 319 15537ft 341kts
22-Jan-19 20:19 33.629377 -118.383454 318 17567ft 347kts
22-Jan-19 20:20 33.700586 -118.469472 318 19674ft 360kts
22-Jan-19 20:21 33.772854 -118.557045 318 21648ft 370kts
22-Jan-19 20:22 33.847457 -118.647653 318 23407ft 380kts
22-Jan-19 20:23 33.922471 -118.739250 317 25112ft 386kts
22-Jan-19 20:24 33.999915 -118.833827 316 26364ft 395kts
22-Jan-19 20:25 34.077759 -118.929157 316 26386ft 392kts
22-Jan-19 20:26 34.152936 -119.026288 305 26391ft 395kts
22-Jan-19 20:27 34.210752 -119.140990 305 26377ft 396kts
22-Jan-19 20:28 34.269740 -119.255632 305 26389ft 396kts
22-Jan-19 20:29 34.328705 -119.370430 305 26390ft 397kts
22-Jan-19 20:30 34.387504 -119.485310 305 26379ft 397kts
22-Jan-19 20:31 34.456725 -119.588811 317 26379ft 392kts
22-Jan-19 20:32 34.536015 -119.685972 316 26733ft 402kts
22-Jan-19 20:33 34.615652 -119.784243 316 28321ft 398kts
22-Jan-19 20:34 34.693587 -119.880583 316 28384ft 393kts
22-Jan-19 20:35 34.771151 -119.976730 315 28385ft 394kts
22-Jan-19 20:36 34.848512 -120.072899 315 28385ft 393kts
22-Jan-19 20:37 34.926361 -120.169968 315 28386ft 393kts
22-Jan-19 20:38 35.003704 -120.266684 316 28381ft 394kts
22-Jan-19 20:39 35.081624 -120.364403 316 28388ft 395kts
22-Jan-19 20:40 35.162689 -120.456529 319 28395ft 394kts
22-Jan-19 20:41 35.244616 -120.548314 319 28394ft 394kts
22-Jan-19 20:42 35.326050 -120.639834 319 28390ft 391kts
22-Jan-19 20:43 35.407021 -120.731335 318 28396ft 392kts
22-Jan-19 20:44 35.488894 -120.823095 322 28420ft 393kts
22-Jan-19 20:45 35.577120 -120.905039 323 28422ft 393kts
22-Jan-19 20:46 35.665578 -120.987155 323 28422ft 393kts
22-Jan-19 20:47 35.753541 -121.069062 323 28422ft 393kts
22-Jan-19 20:48 35.841195 -121.150915 323 28419ft 391kts
22-Jan-19 20:49 35.928821 -121.232976 323 28422ft 391kts
22-Jan-19 20:50 36.016618 -121.315432 323 28395ft 394kts
22-Jan-19 20:51 36.108440 -121.395999 329 26947ft 398kts
22-Jan-19 20:52 36.201164 -121.468041 329 25100ft 382kts
22-Jan-19 20:53 36.288602 -121.536357 330 23342ft 355kts
22-Jan-19 20:54 36.372253 -121.601902 330 21842ft 352kts
22-Jan-19 20:55 36.454005 -121.666205 329 20449ft 344kts
22-Jan-19 20:56 36.534298 -121.729912 328 19249ft 339kts
22-Jan-19 20:57 36.613292 -121.792461 329 18046ft 331kts
22-Jan-19 20:58 36.690730 -121.853808 329 16844ft 326kts
22-Jan-19 21:00 36.771219 -121.902719 347 15636ft 317kts
22-Jan-19 21:01 36.852667 -121.925278 347 14490ft 311kts
22-Jan-19 21:02 36.936109 -121.948555 348 13294ft 305kts
22-Jan-19 21:03 37.017343 -121.978591 344 12046ft 301kts
22-Jan-19 21:04 37.095226 -122.008986 344 10817ft 282kts
22-Jan-19 21:05 37.166961 -122.036929 345 9550ft 256kts
22-Jan-19 21:06 37.235108 -122.063572 345 8341ft 250kts
22-Jan-19 21:07 37.299045 -122.088726 344 7125ft 236kts
22-Jan-19 21:08 37.361515 -122.113384 343 6032ft 230kts
22-Jan-19 21:09 37.424017 -122.135519 344 6021ft 233kts
22-Jan-19 21:10 37.487171 -122.157218 344 4737ft 227kts
22-Jan-19 21:11 37.539764 -122.186792 307 3480ft 197kts
22-Jan-19 21:12 37.563044 -122.242289 300 2168ft 163kts
22-Jan-19 21:13 37.582164 -122.288293 301 1309ft 138kts
22-Jan-19 21:14 37.600584 -122.331718 300 533ft 141kts
22-Jan-19 21:15 37.616999 -122.371002 298 12ft 72kts
22-Jan-19 21:16 37.619971 -122.378635 260 27ft 13kts
22-Jan-19 21:17 37.619710 -122.382247 261 30ft 7kts
22-Jan-19 21:18 37.619053 -122.383023 269 30ft 1kts
22-Jan-19 21:18 37.619162 -122.383435 290 30ft 2kts
22-Jan-19 21:20 37.619195 -122.383545 290 30ft 0kts
22-Jan-19 21:21 37.619195 -122.383545 290 30ft 0kts

Navigation Log

Ident Type
Flight plan parsing failed, navigation log unavailable